.
WxDataArchive / Data Records for 2007-03-29
2007-03-28 March 2007 2007-03-30

Data Records for Thursday, 29 March 2007

Time	Temp	Chill	HIndex	Humid	Dewpt	 Wind 	HiWind	WindDir	Rain 	Barom 
-----	----	-----	------	-----	-----	------	------	-------	-----	----- 
00:00	43.8	40.3	43.8	48	25.4	6	13	112	0.00	30.338 
00:05	43.8	41.7	43.8	51	26.9	4	10	112	0.00	30.340 
00:10	43.8	41.7	43.8	51	26.9	4	12	112	0.00	30.340 
00:15	43.8	40.3	43.8	49	25.9	6	13	112	0.00	30.340 
00:20	43.6	40.7	43.6	50	26.2	5	13	112	0.00	30.341 
00:25	43.6	41.5	43.6	51	26.7	4	13	112	0.00	30.341 
00:30	43.6	40.7	43.6	50	26.2	5	12	112	0.00	30.340 
00:35	43.5	39.9	43.5	49	25.6	6	12	112	0.00	30.340 
00:40	43.5	41.4	43.5	51	26.6	4	10	112	0.00	30.341 
00:45	43.3	40.3	43.3	50	25.9	5	12	112	0.00	30.342 
00:50	43.3	39.7	43.3	51	26.4	6	12	112	0.00	30.344 
00:55	43.3	40.3	43.3	50	25.9	5	14	112	0.00	30.344 
01:00	43.3	39.7	43.3	50	25.9	6	15	112	0.00	30.345 
01:05	43.3	39.7	43.3	51	26.4	6	20	112	0.00	30.342 
01:10	43.3	39.7	43.3	49	25.4	6	20	112	0.00	30.340 
01:15	43.2	40.2	43.2	51	26.3	5	15	112	0.00	30.340 
01:20	43.2	39.6	43.2	50	25.8	6	15	112	0.00	30.341 
01:25	43.2	38.5	43.2	50	25.8	8	17	112	0.00	30.343 
01:30	43.2	39.0	43.2	51	26.3	7	18	112	0.00	30.342 
01:35	43.2	39.6	43.2	50	25.8	6	13	112	0.00	30.341 
01:40	43.2	40.2	43.2	51	26.3	5	14	112	0.00	30.342 
01:45	43.2	39.6	43.2	51	26.3	6	14	112	0.00	30.341 
01:50	43.2	38.5	43.2	51	26.3	8	15	112	0.00	30.340 
01:55	43.2	41.0	43.2	52	26.8	4	11	112	0.00	30.340 
02:00	43.2	40.2	43.2	50	25.8	5	13	112	0.00	30.339 
02:05	43.1	40.1	43.1	51	26.2	5	14	112	0.00	30.340 
02:10	43.1	40.1	43.1	51	26.2	5	13	112	0.00	30.340 
02:15	43.1	40.1	43.1	50	25.7	5	12	112	0.00	30.339 
02:20	43.1	39.5	43.1	50	25.7	6	14	112	0.00	30.338 
02:25	43.1	40.1	43.1	52	26.7	5	15	112	0.00	30.338 
02:30	43.1	40.9	43.1	50	25.7	4	12	112	0.00	30.336 
02:35	43.1	40.1	43.1	51	26.2	5	13	112	0.00	30.335 
02:40	43.1	39.5	43.1	50	25.7	6	15	112	0.00	30.334 
02:45	42.9	39.2	42.9	50	25.6	6	14	112	0.00	30.332 
02:50	43.1	38.9	43.1	49	25.3	7	15	112	0.00	30.333 
02:55	43.1	38.9	43.1	49	25.3	7	16	112	0.00	30.332 
03:00	43.1	38.9	43.1	49	25.3	7	15	112	0.00	30.329 
03:05	43.1	40.1	43.1	49	25.3	5	15	112	0.00	30.328 
03:10	43.1	38.9	43.1	49	25.3	7	16	112	0.00	30.327 
03:15	43.1	39.5	43.1	50	25.7	6	14	112	0.00	30.325 
03:20	42.9	39.2	42.9	50	25.6	6	14	112	0.00	30.324 
03:25	42.9	38.6	42.9	49	25.1	7	17	112	0.00	30.323 
03:30	42.9	38.6	42.9	50	25.6	7	14	112	0.00	30.323 
03:35	42.9	39.2	42.9	50	25.6	6	12	90	0.00	30.324 
03:40	42.9	39.2	42.9	50	25.6	6	13	112	0.00	30.325 
03:45	42.9	39.2	42.9	50	25.6	6	16	112	0.00	30.326 
03:50	42.9	40.7	42.9	50	25.6	4	9	112	0.00	30.325 
03:55	42.9	39.9	42.9	49	25.1	5	12	112	0.00	30.325 
04:00	42.9	39.9	42.9	51	26.0	5	15	112	0.00	30.325 
04:05	42.9	40.7	42.9	51	26.0	4	11	112	0.00	30.328 
04:10	42.9	39.9	42.9	50	25.6	5	12	90	0.00	30.331 
04:15	42.9	42.9	42.9	51	26.0	3	10	90	0.00	30.332 
04:20	42.9	39.9	42.9	50	25.6	5	13	112	0.00	30.336 
04:25	42.9	40.7	42.9	50	25.6	4	12	112	0.00	30.336 
04:30	42.9	42.9	42.9	50	25.6	3	7	112	0.00	30.336 
04:35	42.9	40.7	42.9	50	25.6	4	11	112	0.00	30.336 
04:40	42.9	39.9	42.9	51	26.0	5	10	112	0.00	30.335 
04:45	42.9	39.9	42.9	51	26.0	5	9	90	0.00	30.333 
04:50	42.9	40.7	42.9	50	25.6	4	13	112	0.00	30.333 
04:55	43.1	40.9	43.1	52	26.7	4	9	112	0.00	30.336 
05:00	43.1	40.9	43.1	51	26.2	4	10	90	0.00	30.333 
05:05	43.1	40.9	43.1	50	25.7	4	12	90	0.00	30.337 
05:10	43.2	41.0	43.2	50	25.8	4	10	112	0.00	30.340 
05:15	43.2	43.2	43.2	50	25.8	2	7	90	0.00	30.339 
05:20	43.2	41.0	43.2	50	25.8	4	12	112	0.00	30.339 
05:25	43.1	40.9	43.1	50	25.7	4	11	112	0.00	30.340 
05:30	43.1	43.1	43.1	50	25.7	3	6	112	0.00	30.341 
05:35	42.9	42.9	42.9	51	26.0	3	11	112	0.00	30.341 
05:40	42.8	42.8	42.8	51	25.9	3	9	90	0.00	30.344 
05:45	42.8	42.8	42.8	51	25.9	3	9	112	0.00	30.348 
05:50	42.6	42.6	42.6	51	25.8	2	6	112	0.00	30.355 
05:55	42.6	42.6	42.6	51	25.8	3	9	112	0.00	30.357 
06:00	42.6	42.6	42.6	50	25.3	2	7	112	0.00	30.359 
06:05	42.5	42.5	42.5	51	25.7	2	5	90	0.00	30.363 
06:10	42.3	42.3	42.3	53	26.4	2	6	90	0.00	30.367 
06:15	42.2	42.2	42.2	54	26.8	2	6	112	0.00	30.366 
06:20	41.9	41.9	41.9	52	25.6	3	10	135	0.00	30.369 
06:25	41.9	39.5	41.9	52	25.6	4	10	112	0.00	30.370 
06:30	41.8	41.8	41.8	52	25.5	3	7	112	0.00	30.372 
06:35	41.6	41.6	41.6	52	25.3	3	11	112	0.00	30.373 
06:40	41.5	39.1	41.5	52	25.2	4	11	112	0.00	30.374 
06:45	41.3	41.3	41.3	53	25.5	3	6	112	0.00	30.375 
06:50	41.2	41.2	41.2	52	24.9	3	7	112	0.00	30.376 
06:55	41.2	37.9	41.2	52	24.9	5	10	112	0.00	30.378 
07:00	41.2	41.2	41.2	53	25.4	2	7	112	0.00	30.384 
07:05	41.2	41.2	41.2	52	24.9	3	9	112	0.00	30.387 
07:10	41.5	39.1	41.5	51	24.7	4	12	112	0.00	30.389 
07:15	41.8	38.6	41.8	50	24.5	5	12	112	0.00	30.390 
07:20	41.8	41.8	41.8	50	24.5	3	9	90	0.00	30.394 
07:25	41.9	39.5	41.9	50	24.6	4	9	112	0.00	30.396 
07:30	41.9	38.7	41.9	49	24.1	5	11	112	0.00	30.402 
07:35	41.9	39.5	41.9	50	24.6	4	13	112	0.00	30.402 
07:40	42.1	38.9	42.1	48	23.8	5	12	90	0.00	30.399 
07:45	42.6	39.5	42.6	49	24.8	5	12	112	0.00	30.398 
07:50	43.1	40.1	43.1	48	24.8	5	13	90	0.00	30.396 
07:55	43.2	40.2	43.2	47	24.3	5	11	112	0.00	30.398 
08:00	43.3	41.1	43.3	47	24.4	4	10	112	0.00	30.399 
08:05	43.1	40.1	43.1	49	25.3	5	13	112	0.00	30.394 
08:10	43.2	43.2	43.2	49	25.3	3	12	90	0.00	30.396 
08:15	43.5	39.9	43.5	48	25.1	6	13	112	0.00	30.400 
08:20	44.2	40.8	44.2	47	25.3	6	11	112	0.00	30.400 
08:25	44.8	40.9	44.8	41	22.6	7	14	112	0.00	30.399 
08:30	45.2	41.4	45.2	42	23.5	7	16	112	0.00	30.401 
08:35	46.0	42.4	46.0	41	23.6	7	14	112	0.00	30.401 
08:40	46.4	42.4	46.4	40	23.4	8	18	112	0.00	30.402 
08:45	46.8	43.3	46.8	39	23.2	7	17	90	0.00	30.403 
08:50	47.0	43.1	47.0	38	22.7	8	19	90	0.00	30.401 
08:55	47.4	43.6	47.4	38	23.1	8	15	112	0.00	30.400 
09:00	46.8	43.3	46.8	40	23.8	7	17	112	0.00	30.401 
09:05	46.7	43.2	46.7	35	20.5	7	15	112	0.00	30.400 
09:10	47.0	43.1	47.0	35	20.8	8	16	112	0.00	30.401 
09:15	47.1	43.7	47.1	39	23.4	7	14	112	0.00	30.401 
09:20	47.1	43.2	47.1	36	21.5	8	18	112	0.00	30.405 
09:25	47.0	43.1	47.0	36	21.4	8	16	112	0.00	30.409 
09:30	47.3	43.5	47.3	37	22.4	8	15	90	0.00	30.411 
09:35	48.0	44.3	48.0	39	24.2	8	15	112	0.00	30.412 
09:40	48.5	44.5	48.5	36	22.8	9	16	112	0.00	30.413 
09:45	48.5	44.9	48.5	39	24.7	8	13	112	0.00	30.413 
09:50	48.2	44.6	48.2	39	24.4	8	15	112	0.00	30.413 
09:55	47.7	44.4	47.7	42	25.7	7	14	112	0.00	30.414 
10:00	47.7	44.4	47.7	39	24.0	7	14	112	0.00	30.414 
10:05	47.9	44.2	47.9	38	23.5	8	18	112	0.00	30.414 
10:10	48.0	43.9	48.0	38	23.6	9	15	90	0.00	30.414 
10:15	48.6	45.5	48.6	40	25.4	7	13	112	0.00	30.414 
10:20	49.2	45.8	49.2	38	24.7	8	14	112	0.00	30.414 
10:25	49.8	46.9	49.8	38	25.2	7	16	112	0.00	30.411 
10:30	50.4	50.4	50.4	40	27.0	5	12	112	0.00	30.410 
10:35	50.7	50.7	50.7	42	28.5	8	16	112	0.00	30.410 
10:40	51.6	51.6	51.6	36	25.5	6	12	112	0.00	30.408 
10:45	51.7	51.7	51.7	35	24.9	8	16	112	0.00	30.406 
10:50	51.6	51.6	51.6	36	25.5	9	17	112	0.00	30.407 
10:55	52.0	52.0	52.0	34	24.5	7	16	112	0.00	30.408 
11:00	52.6	52.6	52.6	42	30.2	7	14	112	0.00	30.405 
11:05	52.9	52.9	52.9	36	26.7	6	18	112	0.00	30.405 
11:10	53.1	53.1	53.1	35	26.2	8	14	112	0.00	30.405 
11:15	53.5	53.5	53.5	35	26.5	7	16	112	0.00	30.399 
11:20	53.1	53.1	53.1	33	24.8	7	14	112	0.00	30.397 
11:25	52.8	52.8	52.8	36	26.6	6	14	112	0.00	30.396 
11:30	53.2	53.2	53.2	34	25.6	6	15	112	0.00	30.395 
11:35	53.6	53.6	53.6	32	24.5	10	17	112	0.00	30.393 
11:40	53.8	53.8	53.8	32	24.6	10	18	112	0.00	30.393 
11:45	54.5	54.5	54.5	34	26.7	7	11	90	0.00	30.393 
11:50	54.2	54.2	54.2	30	23.5	11	17	112	0.00	30.392 
11:55	54.5	54.5	54.5	31	24.5	9	19	112	0.00	30.387 
12:00	54.8	54.8	54.8	32	25.5	8	15	112	0.00	30.390 
12:05	54.8	54.8	54.8	32	25.5	9	19	112	0.00	30.382 
12:10	55.1	55.1	55.1	28	22.6	9	17	112	0.00	30.379 
12:15	55.7	55.7	55.7	31	25.5	8	15	112	0.00	30.379 
12:20	56.2	56.2	56.2	28	23.5	8	15	112	0.00	30.380 
12:25	56.2	56.2	56.2	30	25.2	9	16	112	0.00	30.378 
12:30	55.9	55.9	55.9	32	26.5	10	18	112	0.00	30.377 
12:35	55.9	55.9	55.9	29	24.1	10	16	112	0.00	30.377 
12:40	56.3	56.3	56.3	30	25.3	9	16	112	0.00	30.373 
12:45	56.3	56.3	56.3	28	23.6	10	15	112	0.00	30.372 
12:50	56.2	56.2	56.2	30	25.2	10	17	90	0.00	30.372 
12:55	56.6	56.6	56.6	29	24.7	8	13	112	0.00	30.371 
13:00	56.9	56.9	56.9	26	22.4	10	19	90	0.00	30.371 
13:05	56.9	56.9	56.9	28	24.1	10	20	90	0.00	30.365 
13:10	57.0	57.0	57.0	28	24.2	10	18	112	0.00	30.361 
13:15	57.5	57.5	57.5	29	25.5	8	17	112	0.00	30.360 
13:20	57.6	57.6	57.6	30	26.4	10	16	112	0.00	30.359 
13:25	57.6	57.6	57.6	33	28.7	7	19	90	0.00	30.359 
13:30	57.5	57.5	57.5	31	27.1	10	18	112	0.00	30.355 
13:35	57.8	57.8	57.8	33	28.9	8	15	112	0.00	30.353 
13:40	58.0	58.0	58.0	33	29.1	8	17	112	0.00	30.351 
13:45	58.0	58.0	58.0	31	27.5	8	14	90	0.00	30.350 
13:50	58.3	58.3	58.3	30	27.0	7	14	112	0.00	30.351 
13:55	58.4	58.4	58.4	31	27.9	7	15	112	0.00	30.346 
14:00	58.6	58.6	58.6	35	31.0	6	13	112	0.00	30.345 
14:05	58.7	58.7	58.7	31	28.1	8	17	90	0.00	30.344 
14:10	58.7	58.7	58.7	31	28.1	9	17	112	0.00	30.343 
14:15	58.7	58.7	58.7	30	27.4	9	16	90	0.00	30.343 
14:20	58.9	58.9	58.9	31	28.3	7	13	90	0.00	30.343 
14:25	59.3	59.3	59.3	33	30.2	5	12	112	0.00	30.343 
14:30	59.3	59.3	59.3	31	28.7	7	13	112	0.00	30.342 
14:35	59.5	59.5	59.5	33	30.4	6	13	112	0.00	30.342 
14:40	59.2	59.2	59.2	31	28.6	7	14	112	0.00	30.342 
14:45	59.2	59.2	59.2	32	29.4	6	13	112	0.00	30.342 
14:50	59.2	59.2	59.2	33	30.1	5	11	90	0.00	30.340 
14:55	59.0	59.0	59.0	33	29.9	7	13	90	0.00	30.338 
15:00	59.2	59.2	59.2	34	30.8	5	12	90	0.00	30.333 
15:05	59.3	59.3	59.3	34	30.9	5	15	112	0.00	30.329 
15:10	59.3	59.3	59.3	35	31.7	6	11	112	0.00	30.329 
15:15	59.2	59.2	59.2	35	31.6	8	15	112	0.00	30.327 
15:20	59.2	59.2	59.2	36	32.3	6	11	90	0.00	30.326 
15:25	59.5	59.5	59.5	35	31.8	6	14	112	0.00	30.325 
15:30	59.5	59.5	59.5	37	33.2	7	14	112	0.00	30.326 
15:35	59.0	59.0	59.0	34	30.7	8	14	112	0.00	30.325 
15:40	59.0	59.0	59.0	34	30.7	7	14	112	0.00	30.323 
15:45	59.0	59.0	59.0	38	33.4	7	14	112	0.00	30.321 
15:50	59.3	59.3	59.3	35	31.7	5	11	112	0.00	30.323 
15:55	59.2	59.2	59.2	35	31.6	6	10	90	0.00	30.322 
16:00	59.0	59.0	59.0	38	33.4	4	11	90	0.00	30.320 
16:05	59.0	59.0	59.0	36	32.1	6	12	112	0.00	30.316 
16:10	58.9	58.9	58.9	37	32.7	5	13	112	0.00	30.315 
16:15	58.9	58.9	58.9	39	34.0	6	17	112	0.00	30.317 
16:20	58.6	58.6	58.6	37	32.4	6	13	112	0.00	30.316 
16:25	58.4	58.4	58.4	37	32.2	6	13	112	0.00	30.315 
16:30	58.1	58.1	58.1	37	32.0	6	12	112	0.00	30.317 
16:35	58.3	58.3	58.3	39	33.5	5	8	112	0.00	30.316 
16:40	58.4	58.4	58.4	37	32.2	5	11	112	0.00	30.320 
16:45	58.3	58.3	58.3	39	33.5	5	12	112	0.00	30.323 
16:50	58.1	58.1	58.1	38	32.6	5	11	112	0.00	30.324 
16:55	58.0	58.0	58.0	38	32.5	5	12	112	0.00	30.323 
17:00	57.8	57.8	57.8	38	32.4	5	10	112	0.00	30.324 
17:05	57.6	57.6	57.6	39	32.8	6	13	112	0.00	30.324 
17:10	57.8	57.8	57.8	39	33.0	4	9	112	0.00	30.324 
17:15	57.6	57.6	57.6	38	32.2	6	14	112	0.00	30.326 
17:20	57.3	57.3	57.3	37	31.3	5	12	112	0.00	30.326 
17:25	57.2	57.2	57.2	39	32.5	5	11	112	0.00	30.327 
17:30	57.0	57.0	57.0	38	31.6	4	10	112	0.00	30.328 
17:35	56.9	56.9	56.9	40	32.8	4	9	112	0.00	30.328 
17:40	56.6	56.6	56.6	38	31.3	4	10	112	0.00	30.327 
17:45	56.6	56.6	56.6	40	32.6	3	9	90	0.00	30.328 
17:50	56.5	56.5	56.5	39	31.8	5	12	90	0.00	30.328 
17:55	56.3	56.3	56.3	41	32.9	5	12	112	0.00	30.330 
18:00	56.0	56.0	56.0	39	31.4	6	11	112	0.00	30.331 
18:05	55.7	55.7	55.7	42	33.0	6	11	112	0.00	30.333 
18:10	55.6	55.6	55.6	43	33.5	3	7	112	0.00	30.333 
18:15	55.1	55.1	55.1	41	31.8	5	14	112	0.00	30.333 
18:20	54.8	54.8	54.8	43	32.7	4	14	112	0.00	30.335 
18:25	54.5	54.5	54.5	43	32.5	2	7	112	0.00	30.336 
18:30	54.1	54.1	54.1	41	30.9	4	10	112	0.00	30.338 
18:35	53.6	53.6	53.6	42	31.1	4	9	112	0.00	30.338 
18:40	53.3	53.3	53.3	43	31.4	4	12	112	0.00	30.337 
18:45	53.1	53.1	53.1	42	30.6	4	11	112	0.00	30.338 
18:50	52.6	52.6	52.6	43	30.7	2	8	68	0.00	30.338 
18:55	52.3	52.3	52.3	43	30.5	5	12	112	0.00	30.340 
19:00	51.9	51.9	51.9	42	29.5	4	9	112	0.00	30.342 
19:05	51.6	51.6	51.6	41	28.7	2	6	90	0.00	30.341 
19:10	51.1	51.1	51.1	41	28.2	5	11	112	0.00	30.342 
19:15	50.7	50.7	50.7	40	27.3	4	9	112	0.00	30.345 
19:20	50.4	50.4	50.4	41	27.6	4	10	112	0.00	30.349 
19:25	50.1	50.1	50.1	41	27.3	4	10	112	0.00	30.348 
19:30	49.6	48.4	49.6	41	26.9	4	8	112	0.00	30.351 
19:35	49.4	49.4	49.4	42	27.3	3	7	112	0.00	30.352 
19:40	48.9	47.6	48.9	41	26.2	4	11	112	0.00	30.352 
19:45	48.8	48.8	48.8	42	26.7	3	8	112	0.00	30.353 
19:50	48.5	47.1	48.5	42	26.5	4	8	112	0.00	30.358 
19:55	48.2	46.8	48.2	43	26.8	4	9	90	0.00	30.363 
20:00	47.9	47.9	47.9	44	27.0	3	7	112	0.00	30.361 
20:05	47.6	47.6	47.6	44	26.8	3	8	112	0.00	30.360 
20:10	47.3	47.3	47.3	46	27.6	3	6	112	0.00	30.364 
20:15	47.1	45.5	47.1	47	27.9	4	11	112	0.00	30.364 
20:20	46.8	46.8	46.8	44	26.0	3	9	112	0.00	30.364 
20:25	46.7	46.7	46.7	44	26.0	3	9	112	0.00	30.365 
20:30	46.4	44.7	46.4	44	25.7	4	10	112	0.00	30.365 
20:35	46.2	46.2	46.2	45	26.0	2	6	90	0.00	30.367 
20:40	46.0	46.0	46.0	45	25.9	3	7	112	0.00	30.368 
20:45	45.7	45.7	45.7	44	25.0	3	9	112	0.00	30.370 
20:50	45.5	45.5	45.5	45	25.4	2	6	112	0.00	30.370 
20:55	45.2	45.2	45.2	44	24.6	3	9	112	0.00	30.371 
21:00	45.1	45.1	45.1	46	25.6	3	7	112	0.00	30.368 
21:05	44.9	44.9	44.9	46	25.4	1	7	68	0.00	30.368 
21:10	44.6	44.6	44.6	47	25.6	1	6	112	0.00	30.373 
21:15	44.5	44.5	44.5	47	25.5	1	4	112	0.00	30.372 
21:20	44.2	44.2	44.2	48	25.8	1	5	90	0.00	30.372 
21:25	44.1	44.1	44.1	49	26.2	1	4	112	0.00	30.374 
21:30	43.8	43.8	43.8	49	25.9	1	4	68	0.00	30.374 
21:35	43.6	43.6	43.6	50	26.2	1	4	112	0.00	30.376 
21:40	43.5	43.5	43.5	51	26.6	1	3	112	0.00	30.379 
21:45	43.2	43.2	43.2	51	26.3	1	3	112	0.00	30.382 
21:50	43.1	43.1	43.1	51	26.2	1	3	45	0.00	30.377 
21:55	42.9	42.9	42.9	52	26.5	1	3	112	0.00	30.378 
22:00	42.8	42.8	42.8	52	26.4	2	5	90	0.00	30.374 
22:05	42.5	42.5	42.5	53	26.6	2	6	90	0.00	30.366 
22:10	42.3	42.3	42.3	53	26.4	2	5	90	0.00	30.365 
22:15	42.3	42.3	42.3	53	26.4	3	9	112	0.00	30.367 
22:20	42.2	42.2	42.2	52	25.9	2	6	112	0.00	30.367 
22:25	42.1	42.1	42.1	53	26.2	1	9	90	0.00	30.367 
22:30	41.9	41.9	41.9	53	26.0	1	4	112	0.00	30.368 
22:35	41.9	41.9	41.9	53	26.0	2	6	90	0.00	30.366 
22:40	41.8	41.8	41.8	54	26.4	2	4	112	0.00	30.366 
22:45	41.6	41.6	41.6	54	26.2	2	5	90	0.00	30.367 
22:50	41.5	41.5	41.5	54	26.1	1	5	90	0.00	30.368 
22:55	41.3	41.3	41.3	55	26.4	2	5	112	0.00	30.366 
23:00	41.2	41.2	41.2	55	26.3	3	7	112	0.00	30.364 
23:05	41.1	41.1	41.1	56	26.6	2	5	112	0.00	30.361 
23:10	40.9	40.9	40.9	56	26.4	3	9	112	0.00	30.362 
23:15	40.8	40.8	40.8	57	26.8	2	5	90	0.00	30.363 
23:20	40.6	40.6	40.6	57	26.6	3	7	112	0.00	30.361 
23:25	40.6	40.6	40.6	57	26.6	3	6	90	0.00	30.356 
23:30	40.5	40.5	40.5	57	26.5	3	6	112	0.00	30.354 
23:35	40.3	40.3	40.3	58	26.7	2	4	90	0.00	30.356 
23:40	40.2	40.2	40.2	59	27.0	1	3	112	0.00	30.353 
23:45	40.1	40.1	40.1	59	26.9	2	5	112	0.00	30.352 
23:50	39.9	39.9	39.9	60	27.2	1	4	90	0.00	30.351 
23:55	39.9	39.9	39.9	61	27.6	1	3	90	0.00	30.349 

CoCoRaHS
IN-AL-39
A2 Web Hosting
Creative Commons License
GoDaddy
Look for:

loaded 2017-10-16 18:37:19 • last modified 2010-11-18 10:43:29
Privacy PolicyDisclaimer
• wx.awcolley.com is powered by PmWiki v.2002016 •
• all content (unless otherwise noted) © 2017 A W Colley